Time;durP1;ratioP1;P1;durP2;ratioP2;P2;SDS_P1;SDS_P2;PMS_P1;PMS_P2;Temp;Humidity;BMP_temperature;BMP_pressure;BME280_temperature;BME280_humidity;BME280_pressure;Samples;Min_cycle;Max_cycle;Signal;HPM_P1;HPM_P2
2023/01/16 00:02:20;;;;;;;11.15;5.85;;;6.50;99.90;;;6.63;92.51;99348.09;5076675;28;20052;-62
2023/01/16 00:04:49;;;;;;;11.43;5.85;;;6.50;99.90;;;6.66;92.71;99336.69;5095519;28;20076;-61
2023/01/16 00:07:17;;;;;;;10.20;5.85;;;6.50;99.90;;;6.64;92.14;99333.22;5077534;28;20082;-61
2023/01/16 00:09:46;;;;;;;8.75;5.50;;;6.50;99.90;;;6.61;92.36;99310.47;5095231;28;20040;-61
2023/01/16 00:12:14;;;;;;;8.93;6.00;;;6.50;99.90;;;6.66;92.46;99320.91;5095059;28;20036;-62
2023/01/16 00:14:42;;;;;;;9.80;5.75;;;6.50;99.90;;;6.64;92.40;99327.94;5095114;28;20462;-62
2023/01/16 00:17:12;;;;;;;10.85;6.00;;;6.50;99.90;;;6.65;92.62;99322.66;5094875;28;20048;-62
2023/01/16 00:19:41;;;;;;;7.82;5.38;;;6.50;99.90;;;6.67;93.02;99322.63;5095088;28;20108;-61
2023/01/16 00:22:09;;;;;;;9.38;5.55;;;6.50;99.90;;;6.53;93.45;99293.06;5094844;28;20036;-61
2023/01/16 00:24:38;;;;;;;9.02;5.65;;;6.60;99.90;;;6.60;93.09;99295.56;5095287;28;20044;-62
2023/01/16 00:27:06;;;;;;;10.23;5.90;;;6.50;99.90;;;6.66;93.33;99302.53;5094385;28;20381;-61
2023/01/16 00:29:35;;;;;;;9.43;5.38;;;6.50;99.90;;;6.61;93.57;99306.97;5076695;28;20513;-62
2023/01/16 00:32:03;;;;;;;12.20;5.63;;;6.50;99.90;;;6.57;93.60;99305.25;5094755;28;20047;-62
2023/01/16 00:34:33;;;;;;;12.15;6.43;;;6.40;99.90;;;6.28;93.89;99251.41;5094359;28;20133;-63
2023/01/16 00:37:02;;;;;;;12.10;5.90;;;6.40;99.90;;;6.47;94.08;99288.75;5076271;28;20052;-61
2023/01/16 00:39:30;;;;;;;10.60;5.70;;;6.40;99.90;;;6.47;93.79;99285.25;5094328;28;20785;-62
2023/01/16 00:41:59;;;;;;;11.18;5.53;;;6.40;99.90;;;6.44;93.97;99278.31;5094168;28;20044;-61
2023/01/16 00:44:27;;;;;;;10.40;6.20;;;6.30;99.90;;;6.39;94.12;99283.63;5094174;28;20044;-61
2023/01/16 00:46:56;;;;;;;10.98;5.97;;;6.30;99.90;;;6.41;94.17;99274.88;5094417;28;20051;-62
2023/01/16 00:49:24;;;;;;;12.75;6.80;;;6.30;99.90;;;6.27;94.28;99260.16;5094264;28;20082;-62
2023/01/16 00:51:55;;;;;;;12.55;7.28;;;6.30;99.90;;;6.15;94.02;99201.72;5076136;28;20052;-61
2023/01/16 00:54:23;;;;;;;15.07;6.70;;;6.30;99.90;;;6.38;94.11;99237.25;5094277;28;20497;-61
2023/01/16 00:56:52;;;;;;;11.60;6.85;;;6.30;99.90;;;6.33;94.42;99249.56;5093874;28;20402;-62
2023/01/16 00:59:20;;;;;;;15.90;7.10;;;6.30;99.90;;;6.32;94.48;99236.47;5094086;28;20449;-61
2023/01/16 01:01:49;;;;;;;11.77;6.60;;;6.30;99.90;;;6.45;94.27;99237.16;5094007;28;20028;-61
2023/01/16 01:04:17;;;;;;;16.27;7.68;;;6.30;99.90;;;6.43;93.88;99225.84;5093707;28;20048;-62
2023/01/16 01:06:46;;;;;;;12.38;6.45;;;6.30;99.90;;;6.38;93.84;99224.13;5093696;28;20050;-62
2023/01/16 01:09:16;;;;;;;12.35;6.38;;;6.30;99.90;;;6.18;94.17;99173.66;5093785;28;20462;-61
2023/01/16 01:11:44;;;;;;;17.52;7.65;;;6.30;99.90;;;6.35;94.18;99207.53;5093502;28;20039;-62
2023/01/16 01:14:12;;;;;;;11.88;6.45;;;6.30;99.90;;;6.38;94.72;99210.13;5093421;28;20032;-61
2023/01/16 01:16:41;;;;;;;15.95;6.97;;;6.30;99.90;;;6.38;95.23;99195.25;5093364;28;20105;-62
2023/01/16 01:19:09;;;;;;;9.85;6.10;;;6.30;99.90;;;6.42;95.11;99209.19;5093660;28;20040;-62
2023/01/16 01:21:38;;;;;;;17.02;7.53;;;6.40;99.90;;;6.36;95.47;99185.66;5093342;28;20128;-61
2023/01/16 01:24:07;;;;;;;18.88;8.02;;;6.40;99.90;;;6.19;95.57;99161.41;5093261;28;20098;-62
2023/01/16 01:26:37;;;;;;;17.90;7.90;;;6.30;99.90;;;6.30;95.53;99160.38;5093181;28;20098;-62
2023/01/16 01:29:06;;;;;;;24.60;8.45;;;6.30;99.90;;;6.46;95.27;99174.13;5071664;28;20486;-61
2023/01/16 01:31:34;;;;;;;14.65;7.63;;;6.30;99.90;;;6.46;95.24;99158.38;5072833;28;20041;-61
2023/01/16 01:34:03;;;;;;;17.98;8.90;;;6.40;99.90;;;6.49;95.13;99192.44;5072791;28;20464;-61
2023/01/16 01:36:31;;;;;;;14.90;7.85;;;6.40;99.90;;;6.42;94.94;99161.94;5072783;28;20056;-62
2023/01/16 01:38:59;;;;;;;16.73;8.05;;;6.40;99.90;;;6.35;95.32;99147.16;5072810;28;20072;-62
2023/01/16 01:41:28;;;;;;;13.23;8.35;;;6.30;99.90;;;6.33;95.71;99151.56;5072980;28;20045;-62
2023/01/16 01:43:58;;;;;;;18.33;8.65;;;6.30;99.90;;;6.35;96.16;99144.53;5072706;28;20144;-61
2023/01/16 01:46:31;;;;;;;20.10;8.95;;;6.30;99.90;;;6.19;96.66;99133.38;5073068;28;20067;-61
2023/01/16 01:49:05;;;;;;;17.67;9.15;;;6.20;99.90;;;6.29;97.21;99132.38;5072693;28;20062;-61
2023/01/16 01:51:40;;;;;;;17.65;9.43;;;6.20;99.90;;;6.37;97.14;99129.63;5072590;28;20524;-62
2023/01/16 01:54:12;;;;;;;17.67;9.73;;;6.30;99.90;;;6.34;96.67;99101.69;5072672;28;20072;-62
2023/01/16 01:56:45;;;;;;;17.20;9.82;;;6.30;99.90;;;6.21;96.92;99094.88;5072478;28;20490;-61
2023/01/16 01:59:20;;;;;;;17.98;9.70;;;6.20;99.90;;;6.37;97.23;99103.38;5072573;28;20482;-62
2023/01/16 02:01:49;;;;;;;16.83;9.95;;;6.30;99.90;;;6.35;96.70;99099.91;5072565;28;20048;-62
2023/01/16 02:04:23;;;;;;;17.55;9.73;;;6.30;99.90;;;6.23;96.69;99102.75;5072380;28;20076;-61
2023/01/16 02:06:56;;;;;;;17.42;9.73;;;6.20;99.90;;;5.78;97.15;99030.81;5072414;28;20461;-62
2023/01/16 02:09:26;;;;;;;16.08;8.90;;;6.20;99.90;;;6.13;97.65;99094.16;5072447;28;20040;-62
2023/01/16 02:11:57;;;;;;;16.58;8.35;;;6.10;99.90;;;6.21;97.89;99086.16;5072720;28;20036;-62
2023/01/16 02:14:31;;;;;;;12.45;7.50;;;6.10;99.90;;;5.97;98.03;99049.78;5071366;28;20551;-62
2023/01/16 02:20:11;;;;;;;14.27;8.30;;;6.00;99.90;;;5.99;97.78;99054.13;5072644;28;20051;-61
2023/01/16 02:23:30;;;;;;;13.35;6.90;;;6.10;99.90;;;6.10;97.69;99083.66;5072784;28;20044;-61
2023/01/16 02:26:32;;;;;;;13.85;7.18;;;6.10;99.90;;;6.03;97.87;99068.94;5075171;28;20498;-61
2023/01/16 02:29:52;;;;;;;14.10;8.00;;;6.00;99.90;;;5.93;97.92;99029.72;5094976;28;20367;-62
2023/01/16 02:32:37;;;;;;;21.23;7.43;;;6.00;99.90;;;6.06;97.57;99042.63;5062141;28;20067;-62
2023/01/16 02:35:37;;;;;;;17.05;6.88;;;6.00;99.90;;;6.13;97.57;99041.66;5079193;28;20052;-62
2023/01/16 02:38:12;;;;;;;13.93;7.55;;;6.10;99.90;;;5.99;97.39;99022.63;5078745;28;20067;-61
2023/01/16 02:40:53;;;;;;;13.52;6.90;;;6.10;99.90;;;5.62;96.95;98962.84;5079234;28;20094;-61
2023/01/16 02:43:33;;;;;;;13.43;6.93;;;6.00;99.90;;;6.17;97.07;99017.09;5079403;28;20040;-61
2023/01/16 02:46:13;;;;;;;17.40;7.30;;;6.10;99.90;;;6.25;96.88;99022.22;5079417;28;20044;-62
2023/01/16 02:48:51;;;;;;;14.77;7.43;;;6.10;99.90;;;5.99;96.66;98990.28;5078997;28;20037;-62
2023/01/16 02:51:29;;;;;;;12.27;7.13;;;6.10;99.90;;;5.76;96.85;98960.91;5078934;28;20045;-61
2023/01/16 02:54:10;;;;;;;14.80;6.90;;;5.90;99.90;;;5.77;97.44;98979.22;5079092;28;20040;-61
2023/01/16 02:56:45;;;;;;;17.02;7.45;;;5.80;99.90;;;5.68;98.15;98975.88;5079107;28;20082;-62
2023/01/16 02:59:16;;;;;;;14.30;6.70;;;5.70;99.90;;;5.62;98.26;98973.34;5078876;28;20068;-61
2023/01/16 03:01:47;;;;;;;15.87;6.80;;;5.60;99.90;;;5.55;98.68;98967.34;5078943;28;20139;-62
2023/01/16 03:04:47;;;;;;;10.67;6.30;;;5.60;99.90;;;5.57;99.22;98962.06;5078704;28;20041;-63
2023/01/16 03:07:50;;;;;;;12.80;6.27;;;5.60;99.90;;;5.68;98.96;98958.41;5078890;28;20041;-61
2023/01/16 03:10:45;;;;;;;15.30;7.25;;;5.60;99.90;;;5.69;98.91;98959.28;5078617;28;20138;-62
2023/01/16 03:13:25;;;;;;;10.50;6.73;;;5.70;99.90;;;5.75;99.09;98943.44;5078590;28;20080;-61
2023/01/16 03:16:02;;;;;;;9.18;6.25;;;5.70;99.90;;;5.46;99.03;98901.94;5078594;28;20049;-61
2023/01/16 03:18:42;;;;;;;13.70;6.57;;;5.70;99.90;;;5.60;99.16;98936.66;5078789;28;20041;-61
2023/01/16 03:21:19;;;;;;;14.00;6.80;;;5.60;99.90;;;5.61;99.55;98930.56;5078818;28;20056;-61
2023/01/16 03:23:54;;;;;;;9.87;5.13;;;5.60;99.90;;;5.23;99.35;98854.25;5078448;28;20147;-62
2023/01/16 03:26:29;;;;;;;10.10;5.70;;;5.60;99.90;;;5.53;99.37;98909.66;5079100;28;20049;-62
2023/01/16 03:29:09;;;;;;;9.50;5.60;;;5.50;99.90;;;5.57;99.78;98897.41;5098066;28;20087;-62
2023/01/16 03:31:42;;;;;;;;;;;5.60;99.90;;;5.49;99.64;98888.78;5081252;28;20044;-62
2023/01/16 03:34:20;;;;;;;12.80;7.07;;;5.50;99.90;;;5.50;100.00;98880.03;5098659;28;20341;-61
2023/01/16 03:36:55;;;;;;;11.98;6.75;;;5.50;99.90;;;5.31;100.00;98857.63;5097491;28;20484;-62
2023/01/16 03:39:29;;;;;;;12.13;6.77;;;5.40;99.90;;;4.61;100.00;98742.59;5095160;28;20054;-62
2023/01/16 03:42:04;;;;;;;13.00;7.33;;;5.30;99.90;;;5.17;100.00;98844.72;5095426;28;20184;-61
2023/01/16 03:44:37;;;;;;;18.23;8.43;;;5.20;99.90;;;2.57;100.00;98381.41;5077404;28;20048;-61
2023/01/16 03:47:11;;;;;;;12.97;7.90;;;5.20;99.90;;;5.17;100.00;98829.00;5095502;28;20047;-62
2023/01/16 03:49:44;;;;;;;13.70;8.80;;;5.20;99.90;;;5.14;100.00;98786.28;5095230;28;20048;-61
2023/01/16 03:52:17;;;;;;;13.57;7.37;;;5.20;99.90;;;5.27;100.00;98817.50;5095225;28;20043;-61
2023/01/16 03:54:52;;;;;;;12.53;7.93;;;5.20;99.90;;;5.25;100.00;98818.41;5095363;28;20044;-61
2023/01/16 03:57:26;;;;;;;12.30;7.67;;;5.20;99.90;;;5.22;100.00;98792.28;5095251;28;20486;-62
2023/01/16 03:59:55;;;;;;;14.60;7.93;;;5.10;99.90;;;4.99;100.00;98768.19;5076865;28;20051;-62
2023/01/16 04:02:29;;;;;;;11.20;6.77;;;5.00;99.90;;;4.82;100.00;98759.75;5094928;28;20040;-61
2023/01/16 04:05:04;;;;;;;12.33;7.10;;;5.00;99.90;;;2.55;100.00;98336.22;5095073;28;20050;-61
2023/01/16 04:07:40;;;;;;;12.20;7.33;;;5.00;99.90;;;5.14;100.00;98767.94;5094922;28;20036;-61
2023/01/16 04:10:13;;;;;;;14.23;6.93;;;5.00;99.90;;;5.24;100.00;98753.81;5094810;28;20180;-61
2023/01/16 04:12:49;;;;;;;12.90;6.70;;;5.10;99.90;;;5.21;100.00;98748.59;5076940;28;20101;-62
2023/01/16 04:15:19;;;;;;;11.70;6.00;;;5.10;99.90;;;5.09;100.00;98740.97;5094821;28;20036;-62
2023/01/16 04:17:48;;;;;;;12.10;6.43;;;5.10;99.90;;;4.89;100.00;98696.78;5076622;28;20143;-61
2023/01/16 04:20:19;;;;;;;14.33;5.87;;;5.00;99.90;;;5.14;100.00;98720.78;5076607;28;20048;-62
2023/01/16 04:22:51;;;;;;;9.70;5.77;;;5.10;99.90;;;5.13;100.00;98714.69;5094836;28;20048;-62
2023/01/16 04:25:20;;;;;;;10.73;6.13;;;5.10;99.90;;;5.12;100.00;98706.84;5094689;28;20121;-61
2023/01/16 04:27:49;;;;;;;13.77;5.90;;;5.00;99.90;;;4.88;100.00;98632.19;5094812;28;20397;-61
2023/01/16 04:30:18;;;;;;;14.43;5.90;;;5.10;99.90;;;5.20;100.00;98681.38;5076499;28;20055;-62
2023/01/16 04:32:46;;;;;;;9.23;6.13;;;5.10;99.90;;;5.25;100.00;98680.41;5094668;28;20161;-61
2023/01/16 04:35:15;;;;;;;11.53;5.50;;;5.20;99.90;;;5.02;100.00;98630.19;5094538;28;20050;-62
2023/01/16 04:37:43;;;;;;;9.67;6.23;;;5.20;99.90;;;5.19;100.00;98669.16;5094170;28;20407;-62
2023/01/16 04:40:14;;;;;;;16.37;6.20;;;5.20;99.90;;;5.21;100.00;98649.91;5094722;28;20124;-61
2023/01/16 04:42:42;;;;;;;12.32;5.68;;;5.10;99.90;;;5.07;100.00;98622.25;5076624;28;20398;-61
2023/01/16 04:45:11;;;;;;;14.63;6.80;;;5.20;99.90;;;5.08;100.00;98619.59;5094523;28;20036;-62
2023/01/16 04:47:40;;;;;;;14.13;6.87;;;5.10;99.90;;;5.11;100.00;98613.47;5094425;28;20043;-62
2023/01/16 04:50:10;;;;;;;12.83;6.00;;;5.00;99.90;;;4.91;100.00;98566.69;5094077;28;20093;-63
2023/01/16 04:52:39;;;;;;;17.20;6.13;;;5.10;99.90;;;5.17;100.00;98606.31;5094269;28;20040;-63
2023/01/16 04:55:09;;;;;;;12.73;5.70;;;5.10;99.90;;;5.13;100.00;98582.84;5094154;28;20119;-61
2023/01/16 04:57:39;;;;;;;12.57;6.22;;;5.00;99.90;;;5.14;100.00;98576.72;5094291;28;20059;-61
2023/01/16 05:00:11;;;;;;;15.48;6.85;;;5.10;99.90;;;4.89;100.00;98523.09;5093857;28;20046;-61
2023/01/16 05:02:45;;;;;;;12.95;5.93;;;5.10;99.90;;;5.14;100.00;98561.00;5094163;28;20044;-62
2023/01/16 05:05:15;;;;;;;14.27;6.87;;;5.10;99.90;;;5.19;100.00;98548.66;5093830;28;20083;-61
2023/01/16 05:07:44;;;;;;;12.75;6.85;;;5.10;99.90;;;5.08;100.00;98535.78;5076105;28;20040;-61
2023/01/16 05:10:12;;;;;;;12.63;6.07;;;5.10;99.90;;;4.70;100.00;98448.41;5075732;28;20385;-61
2023/01/16 05:12:42;;;;;;;11.50;5.97;;;5.10;99.90;;;5.24;100.00;98526.72;5075981;28;20366;-61
2023/01/16 05:15:12;;;;;;;10.68;6.00;;;5.10;99.90;;;5.30;100.00;98508.22;5093710;28;20135;-62
2023/01/16 05:17:40;;;;;;;9.80;5.63;;;5.20;99.90;;;5.18;100.00;98484.94;5093651;28;20044;-62
2023/01/16 05:20:10;;;;;;;10.37;6.53;;;5.20;99.90;;;5.28;100.00;98493.47;5093740;28;20068;-61
2023/01/16 05:22:39;;;;;;;11.90;6.53;;;5.20;99.90;;;5.18;100.00;98465.72;5076128;28;20051;-61
2023/01/16 05:25:08;;;;;;;13.80;6.00;;;5.20;99.90;;;5.34;100.00;98496.78;5075643;28;20063;-61
2023/01/16 05:27:37;;;;;;;13.83;5.83;;;5.20;99.90;;;5.36;100.00;98465.34;5093390;28;20044;-62
2023/01/16 05:30:08;;;;;;;12.83;5.70;;;5.30;99.90;;;5.37;100.00;98469.66;5075400;28;20142;-61
2023/01/16 05:32:37;;;;;;;13.17;6.03;;;5.30;99.90;;;5.29;100.00;98461.97;5093553;28;20452;-62
2023/01/16 05:35:06;;;;;;;14.25;5.97;;;5.20;99.90;;;5.29;100.00;98437.53;5093189;28;20044;-61
2023/01/16 05:37:35;;;;;;;12.43;6.13;;;5.30;99.90;;;5.28;100.00;98447.13;5093525;28;20075;-61
2023/01/16 05:40:04;;;;;;;13.23;5.80;;;5.30;99.90;;;5.28;100.00;98430.56;5093015;28;20050;-62
2023/01/16 05:42:32;;;;;;;14.13;5.60;;;5.30;99.90;;;5.33;100.00;98431.31;5075231;28;20044;-62
2023/01/16 05:45:01;;;;;;;13.07;5.73;;;5.30;99.90;;;4.63;100.00;98315.97;5093056;28;20459;-61
2023/01/16 05:47:31;;;;;;;12.55;6.50;;;5.20;99.90;;;5.05;100.00;98380.47;5092970;28;20059;-62
2023/01/16 05:50:00;;;;;;;13.02;6.38;;;5.30;99.90;;;5.42;100.00;98431.09;5093304;28;20048;-62
2023/01/16 05:52:29;;;;;;;11.80;5.67;;;5.30;99.90;;;5.32;100.00;98392.94;5092952;28;20151;-61
2023/01/16 05:54:57;;;;;;;8.17;5.67;;;5.30;99.90;;;5.49;100.00;98401.25;5074983;28;20093;-62
2023/01/16 05:57:26;;;;;;;13.30;6.20;;;5.40;99.90;;;5.27;100.00;98395.63;5093070;28;20067;-61
2023/01/16 05:59:54;;;;;;;15.03;6.10;;;5.30;99.90;;;5.14;100.00;98367.13;5092442;28;20562;-61
2023/01/16 06:02:23;;;;;;;15.00;6.60;;;5.20;99.90;;;5.32;100.00;98390.31;5092495;28;20090;-62
2023/01/16 06:04:53;;;;;;;12.70;6.53;;;5.20;99.90;;;5.26;100.00;98367.72;5092720;28;20434;-62
2023/01/16 06:07:21;;;;;;;13.15;6.22;;;5.30;99.90;;;5.29;100.00;98372.00;5092991;28;20040;-62
2023/01/16 06:09:50;;;;;;;14.57;6.53;;;5.20;99.90;;;5.18;100.00;98368.78;5093147;28;20134;-62
2023/01/16 06:12:20;;;;;;;18.63;8.73;;;5.10;99.90;;;5.21;100.00;98339.91;5092546;28;20087;-61
2023/01/16 06:14:48;;;;;;;12.63;6.65;;;5.10;99.90;;;5.09;100.00;98340.22;5092859;28;20052;-62
2023/01/16 06:17:18;;;;;;;12.83;6.43;;;5.20;99.90;;;5.11;100.00;98348.88;5092530;28;20048;-61
2023/01/16 06:19:47;;;;;;;14.63;6.97;;;5.10;99.90;;;5.06;100.00;98333.28;5092410;28;20036;-61
2023/01/16 06:22:17;;;;;;;13.53;6.83;;;5.00;99.90;;;4.89;100.00;98329.31;5092745;28;20043;-62
2023/01/16 06:24:45;;;;;;;10.60;5.90;;;5.00;99.90;;;5.00;100.00;98322.94;5074595;28;20060;-62
2023/01/16 06:27:14;;;;;;;12.98;6.00;;;4.90;99.90;;;5.02;100.00;98326.38;5092365;28;20074;-61
2023/01/16 06:29:43;;;;;;;12.00;6.47;;;5.00;99.90;;;5.08;100.00;98335.84;5092530;28;20036;-61
2023/01/16 06:32:11;;;;;;;7.67;6.17;;;5.00;99.90;;;5.17;100.00;98333.00;5074515;28;20044;-61
2023/01/16 06:34:40;;;;;;;9.93;5.35;;;5.10;99.90;;;5.11;100.00;98299.97;5092286;28;20052;-60
2023/01/16 06:37:08;;;;;;;12.05;5.90;;;5.10;99.90;;;5.08;100.00;98299.19;5092348;28;20098;-60
2023/01/16 06:39:38;;;;;;;12.03;6.20;;;5.00;99.90;;;4.99;100.00;98273.22;5092499;28;20542;-61
2023/01/16 06:42:07;;;;;;;12.02;5.95;;;5.00;99.90;;;5.11;100.00;98262.44;5092229;28;20125;-61
2023/01/16 06:44:36;;;;;;;12.70;6.03;;;5.00;99.90;;;5.07;100.00;98252.94;5092225;28;20075;-61
2023/01/16 06:47:06;;;;;;;11.03;5.60;;;5.10;99.90;;;5.07;100.00;98256.41;5092506;28;20047;-61
2023/01/16 06:49:34;;;;;;;11.85;5.22;;;5.00;99.90;;;5.08;100.00;98242.44;5092362;28;20044;-61
2023/01/16 06:52:03;;;;;;;10.52;5.28;;;5.00;99.90;;;5.04;100.00;98226.81;5092512;28;20526;-62
2023/01/16 06:54:31;;;;;;;13.67;5.93;;;5.00;99.90;;;5.14;100.00;98212.59;5092107;28;20036;-62
2023/01/16 06:57:01;;;;;;;16.70;6.32;;;5.10;99.90;;;5.13;100.00;98209.09;5092475;28;20127;-62
2023/01/16 06:59:30;;;;;;;10.73;5.72;;;5.10;99.90;;;5.21;100.00;98206.28;5092241;28;20150;-62
2023/01/16 07:01:59;;;;;;;11.90;6.13;;;5.10;99.90;;;5.06;100.00;98180.50;5092181;28;20486;-62
2023/01/16 07:04:27;;;;;;;11.45;5.75;;;5.10;99.90;;;4.59;100.00;98113.63;5092136;28;20501;-62
2023/01/16 07:06:56;;;;;;;12.02;6.00;;;5.10;99.90;;;5.06;100.00;98168.28;5092042;28;20105;-62
2023/01/16 07:09:29;;;;;;;13.10;5.93;;;5.00;99.90;;;5.06;100.00;98165.66;5092280;28;20569;-62
2023/01/16 07:11:57;;;;;;;10.95;5.20;;;5.00;99.90;;;5.10;100.00;98150.72;5093416;28;20542;-61
2023/01/16 07:22:58;;;;;;;16.27;6.10;;;5.10;99.90;;;5.05;100.00;98074.03;5087670;28;20109;-62
2023/01/16 07:25:36;;;;;;;9.48;5.78;;;5.20;99.90;;;5.23;100.00;98078.75;5094667;28;20097;-61
2023/01/16 07:28:05;;;;;;;11.70;5.97;;;5.20;99.90;;;5.19;100.00;98077.97;5095983;28;20131;-62
2023/01/16 07:30:35;;;;;;;13.73;6.70;;;5.20;99.90;;;5.23;100.00;98076.97;5095500;28;20521;-61
2023/01/16 07:33:04;;;;;;;21.85;6.82;;;5.20;99.90;;;5.08;100.00;98066.06;5095660;28;20428;-61
2023/01/16 07:35:35;;;;;;;12.60;6.53;;;5.10;99.90;;;4.98;100.00;98026.19;5095538;28;20036;-61
2023/01/16 07:38:03;;;;;;;13.70;6.63;;;5.10;99.90;;;5.20;100.00;98060.50;5095540;28;20493;-63
2023/01/16 07:40:32;;;;;;;13.00;6.50;;;5.20;99.90;;;4.96;100.00;98033.22;5095446;28;20042;-62
2023/01/16 07:43:00;;;;;;;12.98;6.90;;;5.10;99.90;;;5.19;100.00;98041.31;5095386;28;20520;-62
2023/01/16 07:45:29;;;;;;;11.80;5.75;;;5.10;99.90;;;5.21;100.00;98036.88;5095374;28;20060;-62
2023/01/16 07:48:01;;;;;;;13.30;5.90;;;5.20;99.90;;;5.18;100.00;98033.50;5095666;28;20044;-62
2023/01/16 07:50:30;;;;;;;9.37;5.97;;;5.20;99.90;;;5.18;100.00;98043.97;5077538;28;20551;-62
2023/01/16 07:52:59;;;;;;;12.95;5.55;;;5.10;99.90;;;5.13;100.00;98057.19;5094519;28;20059;-62
2023/01/16 07:55:27;;;;;;;14.95;6.18;;;5.10;99.90;;;5.06;100.00;98070.50;5095218;28;20044;-62
2023/01/16 07:57:56;;;;;;;14.93;6.47;;;5.10;99.90;;;5.03;100.00;98033.94;5095401;28;20112;-61
2023/01/16 08:00:24;;;;;;;10.60;6.03;;;5.00;99.90;;;5.05;100.00;98014.63;5095534;28;20496;-61
2023/01/16 08:02:53;;;;;;;7.43;6.13;;;5.00;99.90;;;5.07;100.00;98012.81;5077749;28;20048;-62
2023/01/16 08:05:23;;;;;;;14.20;6.53;;;5.00;99.90;;;5.11;100.00;98017.09;5095749;28;20036;-62
2023/01/16 08:07:51;;;;;;;14.02;6.25;;;5.00;99.90;;;5.03;100.00;98005.13;5095262;28;20071;-61
2023/01/16 08:10:20;;;;;;;11.88;5.93;;;5.00;99.90;;;5.09;100.00;97997.94;5095299;28;20070;-62
2023/01/16 08:12:48;;;;;;;13.40;6.00;;;5.10;99.90;;;4.20;100.00;97848.69;5094952;28;20554;-62
2023/01/16 08:15:17;;;;;;;10.50;6.40;;;5.10;99.90;;;5.01;100.00;97970.25;5095264;28;20102;-62
2023/01/16 08:17:46;;;;;;;9.20;5.70;;;5.10;99.90;;;5.18;100.00;98009.91;5094903;28;20044;-62
2023/01/16 08:20:14;;;;;;;13.00;6.30;;;5.10;99.90;;;5.15;100.00;97989.06;5076751;28;20118;-62
2023/01/16 08:22:45;;;;;;;15.88;6.72;;;5.10;99.90;;;5.18;100.00;97991.59;5095390;28;20377;-62
2023/01/16 08:25:15;;;;;;;11.98;6.82;;;5.10;99.90;;;4.95;100.00;97944.25;5094258;28;20048;-62
2023/01/16 08:27:44;;;;;;;10.38;7.13;;;5.10;99.90;;;5.20;100.00;97974.06;5076563;28;20500;-63
2023/01/16 08:30:14;;;;;;;12.55;6.43;;;5.10;99.90;;;5.13;100.00;97991.69;5094761;28;20065;-61
2023/01/16 08:32:47;;;;;;;12.65;6.38;;;5.10;99.90;;;5.23;100.00;97973.94;5094469;28;20044;-61
2023/01/16 08:35:15;;;;;;;10.07;6.07;;;5.10;99.90;;;5.19;100.00;97970.56;5094391;28;20458;-62
2023/01/16 08:37:50;;;;;;;7.53;6.25;;;5.10;99.90;;;5.23;100.00;97973.94;5094500;28;20105;-61
2023/01/16 08:40:19;;;;;;;8.63;5.80;;;5.20;99.90;;;5.21;100.00;97950.44;5094410;28;20047;-61
2023/01/16 08:51:22;;;;;;;8.70;6.10;;;5.20;99.90;;;5.23;100.00;97927.66;5094336;28;20044;-62
2023/01/16 08:53:55;;;;;;;6.68;5.95;;;5.20;99.90;;;5.25;100.00;97938.09;5093165;28;20048;-62
2023/01/16 08:56:24;;;;;;;9.03;6.87;;;5.20;99.90;;;5.32;100.00;97927.38;5076038;28;20043;-61
2023/01/16 08:58:52;;;;;;;9.25;6.03;;;5.30;99.90;;;5.28;100.00;97917.91;5093796;28;20032;-62
2023/01/16 09:01:21;;;;;;;8.83;6.27;;;5.30;99.90;;;5.31;100.00;97924.81;5093936;28;20051;-61
2023/01/16 09:03:49;;;;;;;7.10;6.50;;;5.30;99.90;;;5.36;100.00;97912.44;5093738;28;20119;-61
2023/01/16 09:06:18;;;;;;;8.10;5.93;;;5.30;99.90;;;5.38;100.00;97910.63;5093655;28;20119;-62
2023/01/16 09:08:46;;;;;;;8.30;6.38;;;5.30;99.90;;;5.48;100.00;97904.16;5093853;28;20405;-61
2023/01/16 09:14:02;;;;;;;8.13;6.07;;;5.40;99.90;;;5.23;100.00;97879.66;5093860;28;20063;-62
2023/01/16 09:16:38;;;;;;;7.40;6.00;;;5.30;99.90;;;5.57;100.00;97906.53;5093572;28;20463;-62
2023/01/16 09:19:07;;;;;;;6.13;5.18;;;5.40;99.90;;;5.49;100.00;97891.03;5093735;28;20059;-61
2023/01/16 09:21:35;;;;;;;8.98;6.60;;;5.40;99.90;;;5.45;100.00;97891.19;5093391;28;20427;-61
2023/01/16 09:24:04;;;;;;;8.82;5.80;;;5.40;99.90;;;5.16;100.00;97837.09;5093389;28;20397;-61
2023/01/16 09:26:34;;;;;;;7.97;5.90;;;5.30;99.90;;;5.46;100.00;97878.03;5093801;28;20048;-62
2023/01/16 09:29:03;;;;;;;5.97;5.25;;;5.40;99.90;;;5.13;100.00;97839.78;5093525;28;20060;-63
2023/01/16 09:31:31;;;;;;;9.48;5.53;;;5.30;99.90;;;5.48;100.00;97870.09;5093623;28;20364;-61
2023/01/16 09:34:00;;;;;;;8.70;7.03;;;5.40;99.90;;;5.28;100.00;97843.72;5093191;28;20044;-62
2023/01/16 09:36:31;;;;;;;6.38;5.78;;;5.40;99.90;;;5.41;100.00;97842.41;5092315;28;20071;-62
2023/01/16 09:38:59;;;;;;;8.38;6.13;;;5.40;99.90;;;5.40;100.00;97840.69;5093517;28;20056;-62
2023/01/16 09:44:22;;;;;;;7.15;6.45;;;5.40;99.90;;;5.37;100.00;97836.41;5093178;28;20490;-61
2023/01/16 09:46:53;;;;;;;9.50;5.85;;;5.40;99.90;;;5.39;100.00;97844.22;5093232;28;20047;-62
2023/01/16 09:49:27;;;;;;;6.60;5.45;;;5.30;99.90;;;5.53;100.00;97841.13;5092892;28;20052;-61
2023/01/16 10:00:31;;;;;;;7.55;6.75;;;5.40;99.90;;;5.19;100.00;97787.22;5093076;28;20064;-61
2023/01/16 10:03:00;;;;;;;8.55;6.57;;;5.40;99.90;;;5.43;100.00;97830.97;5093061;28;20093;-62
2023/01/16 10:05:37;;;;;;;8.55;7.15;;;5.40;99.90;;;5.43;100.00;97820.47;5092939;28;20409;-62
2023/01/16 10:08:11;;;;;;;7.27;6.57;;;5.40;99.90;;;5.35;100.00;97795.44;5092720;28;20032;-62
2023/01/16 10:10:45;;;;;;;8.25;6.22;;;5.40;99.90;;;5.36;100.00;97786.69;5092631;28;20482;-62
2023/01/16 10:13:45;;;;;;;7.20;6.60;;;5.40;99.90;;;5.43;100.00;97810.00;5092733;28;20089;-62
2023/01/16 10:16:24;;;;;;;6.67;6.10;;;5.40;99.90;;;5.32;100.00;97785.06;5092688;28;20082;-61
2023/01/16 10:19:00;;;;;;;8.20;7.40;;;5.40;99.90;;;5.39;100.00;97761.22;5092769;28;20040;-62
2023/01/16 10:22:02;;;;;;;8.75;6.25;;;5.50;99.90;;;5.59;100.00;97799.00;5074666;28;20079;-62
2023/01/16 10:24:46;;;;;;;8.95;6.93;;;5.60;99.90;;;5.72;100.00;97784.56;5092835;28;20036;-62
2023/01/16 10:27:20;;;;;;;7.60;6.47;;;5.60;99.90;;;5.86;100.00;97798.09;5092781;28;20098;-61
2023/01/16 10:29:55;;;;;;;7.82;7.00;;;5.70;99.90;;;5.88;100.00;97797.13;5092510;28;20044;-61
2023/01/16 10:32:31;;;;;;;7.63;6.10;;;5.70;99.90;;;5.90;100.00;97789.19;5092630;28;20095;-61
2023/01/16 10:35:04;;;;;;;7.50;6.57;;;5.80;99.90;;;5.95;100.00;97790.75;5092606;28;20047;-62
2023/01/16 10:37:37;;;;;;;7.45;6.18;;;5.90;99.90;;;5.45;100.00;97698.13;5093215;28;20107;-62
2023/01/16 10:40:16;;;;;;;5.60;5.10;;;6.00;99.90;;;5.82;100.00;97737.00;5093139;28;20040;-62
2023/01/16 10:51:13;;;;;;;8.83;5.27;;;6.10;99.90;;;6.08;100.00;97762.28;5096549;28;20093;-61
2023/01/16 10:53:42;;;;;;;8.85;5.05;;;6.00;99.90;;;6.19;100.00;97768.84;5096949;28;20282;-61
2023/01/16 10:56:11;;;;;;;7.15;5.30;;;6.10;99.90;;;6.06;100.00;97758.88;5096799;28;20120;-61
2023/01/16 10:58:41;;;;;;;5.07;4.65;;;6.10;99.90;;;6.04;100.00;97737.13;5096423;28;20062;-62
2023/01/16 11:01:15;;;;;;;5.70;5.10;;;6.10;99.90;;;6.23;100.00;97753.88;5096395;28;20059;-63
2023/01/16 11:03:47;;;;;;;7.95;5.00;;;6.10;99.90;;;6.30;100.00;97753.59;5096531;28;20052;-61
2023/01/16 11:06:20;;;;;;;5.13;4.80;;;6.20;99.90;;;6.30;100.00;97748.34;5096870;28;20119;-62
2023/01/16 11:08:50;;;;;;;5.20;4.75;;;6.20;99.90;;;6.34;100.00;97723.69;5097057;28;20127;-61
2023/01/16 11:20:15;;;;;;;4.78;4.38;;;6.50;99.90;;;6.48;100.00;97711.81;5095973;28;20101;-61
2023/01/16 11:22:51;;;;;;;5.18;4.22;;;6.50;99.90;;;6.52;100.00;97713.41;5095990;28;20079;-61
2023/01/16 11:25:20;;;;;;;4.95;4.53;;;6.40;99.90;;;6.57;100.00;97700.94;5096205;28;20090;-62
2023/01/16 11:27:52;;;;;;;4.72;4.30;;;6.50;99.90;;;6.64;100.00;97720.81;5095652;28;20079;-61
2023/01/16 11:30:28;;;;;;;5.78;4.78;;;6.50;99.90;;;6.75;100.00;97714.22;5095774;28;20036;-62
2023/01/16 11:33:00;;;;;;;4.72;4.32;;;6.60;99.90;;;6.83;100.00;97696.34;5095690;28;20082;-61
2023/01/16 11:35:34;;;;;;;5.35;4.85;;;6.70;99.90;;;5.01;100.00;97365.41;5077637;28;20048;-61